Stations météo

réclame
Mon MeteoGroup
Fehmarnbelt/Grosstonne, Allemagne (10043): Température de l'air & dewpoint: 11.01.2019 01:00:00 - 17.01.2019 01:00:00 (CET)Fehmarnbelt/Grosstonne, Allemagne (10043): water temperature: 11.01.2019 01:00:00 - 17.01.2019 01:00:00 (CET)Fehmarnbelt/Grosstonne, Allemagne (10043): reduced air pressure: 11.01.2019 01:00:00 - 17.01.2019 01:00:00 (CET)
Date & Time tt [°C] td [°C] tw [°C] ppp [hPa]
17.01.2019 01:00:00 5,0 4,0 4,7 992,5
17.01.2019 00:00:00 4,7 4,2 4,7 993,4
16.01.2019 23:00:00 5,0 4,0 4,7 994,2
16.01.2019 22:00:00 5,2 4,0 4,7 994,9
16.01.2019 21:00:00 5,2 4,7 4,7 995,8
16.01.2019 20:00:00 5,5 4,7 4,7 996,1
16.01.2019 19:00:00 5,5 4,9 4,7 996,9
16.01.2019 18:00:00 5,7 5,2 4,7 997,7
16.01.2019 17:00:00 6,0 5,7 4,7 998,4
16.01.2019 16:00:00 5,9 5,7 4,7 998,8
16.01.2019 15:00:00 5,7 5,5 4,7 999,1
16.01.2019 14:00:00 6,0 5,5 4,7 999,7
16.01.2019 13:00:00 6,2 4,9 4,7 1000,3
16.01.2019 12:00:00 6,7 4,7 4,7 1001,2
16.01.2019 11:00:00 6,4 4,9 4,7 1001,8
16.01.2019 10:00:00 6,2 5,0 4,7 1002,2
16.01.2019 09:00:00 6,0 4,9 4,7 1002,7
16.01.2019 08:00:00 6,0 5,0 4,7 1002,8
16.01.2019 07:00:00 6,0 4,9 4,7 1002,9
16.01.2019 06:00:00 6,0 4,9 4,7 1003,4
16.01.2019 05:00:00 6,2 4,7 4,7 1003,5
16.01.2019 04:00:00 6,0 4,9 4,7 1003,9
16.01.2019 03:00:00 6,2 5,0 4,7 1003,9
16.01.2019 02:00:00 6,2 5,2 4,6 1003,8
16.01.2019 01:00:00 5,9 5,7 4,6 1003,8
16.01.2019 00:00:00 6,0 5,7 4,6 1004,1
15.01.2019 23:00:00 5,7 5,2 4,6 1004,2
15.01.2019 22:00:00 6,0 5,2 4,6 1004,2
15.01.2019 21:00:00 6,0 5,0 4,6 1004,0
15.01.2019 20:00:00 6,2 5,0 4,6 1003,8
15.01.2019 19:00:00 6,4 5,0 4,6 1003,4
15.01.2019 18:00:00 6,5 5,0 4,6 1002,8
15.01.2019 17:00:00 6,2 5,9 4,6 1002,6
15.01.2019 16:00:00 6,0 5,7 4,7 1002,3
15.01.2019 15:00:00 6,0 5,7 4,7 1002,5
15.01.2019 14:00:00 6,0 5,4 4,6 1003,0
15.01.2019 13:00:00 5,5 5,2 4,6 1003,9
15.01.2019 12:00:00 5,7 4,5 4,6 1005,1
15.01.2019 11:00:00 5,4 4,1 4,6 1006,3
15.01.2019 10:00:00 5,5 3,9 4,6 1006,3
15.01.2019 09:00:00 5,2 3,5 4,6 1006,4
15.01.2019 08:00:00 5,0 3,2 4,6 1006,3
15.01.2019 07:00:00 5,2 3,2 4,6 1006,0
15.01.2019 06:00:00 4,9 2,9 4,6 1006,6
15.01.2019 05:00:00 4,2 2,7 4,6 1006,8
15.01.2019 04:00:00 4,2 1,9 4,6 1007,6
15.01.2019 03:00:00 4,5 1,5 4,6 1008,3
15.01.2019 02:00:00 4,4 0,5 4,6 1008,5
15.01.2019 01:00:00 4,5 -0,1 4,6 1007,8
15.01.2019 00:00:00 4,2 -0,3 4,6 1007,8
14.01.2019 23:00:00 4,2 -1,2 4,7 1007,5
14.01.2019 22:00:00 4,0 -1,0 4,7 1006,9
14.01.2019 21:00:00 3,7 -1,1 4,7 1006,5
14.01.2019 20:00:00 3,5 -2,0 4,7 1006,1
14.01.2019 19:00:00 3,5 -2,8 4,4 1005,0
14.01.2019 18:00:00 3,5 -2,3 4,5 1004,6
14.01.2019 17:00:00 3,5 -2,8 4,6 1004,3
14.01.2019 16:00:00 3,5 -3,3 4,6 1003,2
14.01.2019 15:00:00 3,4 -4,3 4,7 1002,7
14.01.2019 14:00:00 3,5 -3,8 4,7 1002,3
14.01.2019 13:00:00 3,0 -4,8 4,7 1001,4
14.01.2019 12:00:00 2,7 -4,6 4,7 1000,7
14.01.2019 11:00:00 2,7 -3,5 4,8 1000,1
14.01.2019 10:00:00 2,9 -3,0 4,9 999,1
14.01.2019 09:00:00 2,7 -4,5 4,9 998,2
14.01.2019 08:00:00 2,9 -3,5 4,9 997,7
14.01.2019 07:00:00 2,9 -4,3 4,9 996,5
14.01.2019 06:00:00 3,2 -2,5 4,9 995,8
14.01.2019 05:00:00 3,7 -2,1 4,9 995,0
14.01.2019 04:00:00 4,2 -2,8 4,9 994,0
14.01.2019 03:00:00 4,2 -2,1 5,0 993,2
14.01.2019 02:00:00 4,7 -0,5 5,0 991,7
14.01.2019 01:00:00 5,0 0,9 5,0 990,3
14.01.2019 00:00:00 5,2 1,5 5,0 988,7
13.01.2019 23:00:00 5,2 1,7 5,0 986,9
13.01.2019 22:00:00 5,5 1,5 4,9 985,9
13.01.2019 21:00:00 6,4 2,2 4,9 984,8
13.01.2019 20:00:00 6,2 3,9 4,9 984,4
13.01.2019 19:00:00 6,5 4,5 4,9 984,3
13.01.2019 18:00:00 6,7 4,4 4,8 984,2
13.01.2019 17:00:00 6,7 4,5 4,8 984,5
13.01.2019 16:00:00 6,7 3,9 4,8 985,2
13.01.2019 15:00:00 6,7 5,7 4,8 986,4
13.01.2019 14:00:00 6,5 6,0 4,8 988,0
13.01.2019 13:00:00 6,5 6,0 4,8 989,3
13.01.2019 12:00:00 6,4 6,0 4,8 990,3
13.01.2019 11:00:00 6,0 5,9 4,8 991,5
13.01.2019 10:00:00 5,7 5,4 4,8 993,1
13.01.2019 09:00:00 5,7 5,2 4,8 994,7
13.01.2019 08:00:00 5,7 5,0 4,8 996,1
13.01.2019 07:00:00 5,7 4,7 4,8 997,0
13.01.2019 06:00:00 5,5 4,5 4,8 998,2
13.01.2019 05:00:00 5,5 4,7 4,7 998,9
13.01.2019 04:00:00 5,7 4,7 4,7 999,3
13.01.2019 03:00:00 5,9 4,5 4,8 999,6
13.01.2019 02:00:00 5,9 4,5 4,8 1000,0
13.01.2019 01:00:00 6,0 4,2 4,8 999,9
13.01.2019 00:00:00 5,7 4,2 4,8 999,8
12.01.2019 23:00:00 5,7 4,2 4,8 1000,1
12.01.2019 22:00:00 6,0 3,7 4,8 999,7
12.01.2019 21:00:00 5,9 4,2 4,8 999,8
12.01.2019 20:00:00 5,9 4,2 4,8 1000,1
12.01.2019 19:00:00 6,0 4,0 4,8 1000,2
12.01.2019 18:00:00 6,0 4,2 4,8 1000,6
12.01.2019 17:00:00 6,2 4,2 4,8 1001,1
12.01.2019 16:00:00 5,9 4,7 4,8 1001,7
12.01.2019 15:00:00 6,0 4,5 4,8 1002,4
12.01.2019 14:00:00 5,4 5,0 4,8 1002,7
12.01.2019 13:00:00 5,2 4,7 4,9 1004,5
12.01.2019 12:00:00 5,7 4,0 4,9 1006,4
12.01.2019 11:00:00 5,5 4,2 4,9 1008,0
12.01.2019 10:00:00 5,2 5,0 4,9 1009,1
12.01.2019 09:00:00 5,2 4,9 4,9 1009,7
12.01.2019 08:00:00 5,2 4,7 4,9 1010,5
12.01.2019 07:00:00 5,5 3,9 4,8 1011,0
12.01.2019 06:00:00 5,5 3,0 4,7 1011,5
12.01.2019 05:00:00 5,5 2,4 4,7 1012,0
12.01.2019 04:00:00 5,2 2,5 4,7 1012,5
12.01.2019 03:00:00 5,0 2,9 4,7 1012,9
12.01.2019 02:00:00 4,9 3,0 4,7 1013,2
12.01.2019 01:00:00 4,7 2,7 4,8 1013,5
12.01.2019 00:00:00 4,7 2,7 4,8 1013,6
11.01.2019 23:00:00 4,7 2,4 4,8 1013,7
11.01.2019 22:00:00 4,9 2,0 4,9 1013,6
11.01.2019 21:00:00 5,0 2,7 4,9 1013,6
11.01.2019 20:00:00 5,2 2,5 4,9 1013,2
11.01.2019 19:00:00 5,5 3,0 4,9 1012,9
11.01.2019 18:00:00 5,5 3,7 4,9 1012,3
11.01.2019 17:00:00 5,7 4,0 4,9 1012,2
11.01.2019 16:00:00 6,0 4,0 4,9 1012,0
11.01.2019 15:00:00 6,4 4,2 4,9 1011,5
11.01.2019 14:00:00 6,4 4,7 4,9 1011,8
11.01.2019 13:00:00 6,0 4,9 4,9 1012,1
11.01.2019 12:00:00 6,4 5,0 4,9 1012,6
11.01.2019 11:00:00 6,7 5,2 4,9 1012,9
11.01.2019 10:00:00 6,0 5,4 4,8 1013,5
11.01.2019 09:00:00 6,0 5,4 4,8 1013,9
11.01.2019 08:00:00 5,7 5,2 4,8 1014,3
11.01.2019 07:00:00 5,7 5,2 4,8 1014,7
11.01.2019 06:00:00 5,5 5,2 4,8 1015,4
11.01.2019 05:00:00 5,2 5,0 4,8 1015,9
11.01.2019 04:00:00 4,7 4,5 4,7 1016,3
11.01.2019 03:00:00 4,2 3,7 4,7 1017,4
11.01.2019 02:00:00 3,4 2,7 4,7 1018,2
11.01.2019 01:00:00 2,7 2,3 4,7 1019,0

tt = Température de l'air
td = dewpoint
tw = water temperature
ppp = reduced air pressure

stations d'obs. à proximité